sensor_id;sensor_type;location;lat;lon;timestamp;P1;durP1;ratioP1;P2;durP2;ratioP2
78368;SDS011;71113;43.092;-89.268;2023-12-22T00:00:30;83.57;;;30.70;;
78368;SDS011;71113;43.092;-89.268;2023-12-22T00:02:56;76.00;;;28.02;;
78368;SDS011;71113;43.092;-89.268;2023-12-22T00:05:22;76.35;;;28.35;;
78368;SDS011;71113;43.092;-89.268;2023-12-22T00:07:48;69.30;;;25.33;;
78368;SDS011;71113;43.092;-89.268;2023-12-22T00:10:14;66.30;;;25.42;;
78368;SDS011;71113;43.092;-89.268;2023-12-22T00:12:40;66.57;;;24.48;;
78368;SDS011;71113;43.092;-89.268;2023-12-22T00:15:06;70.45;;;25.60;;
78368;SDS011;71113;43.092;-89.268;2023-12-22T00:17:32;62.60;;;24.27;;
78368;SDS011;71113;43.092;-89.268;2023-12-22T00:19:58;64.03;;;24.02;;
78368;SDS011;71113;43.092;-89.268;2023-12-22T00:22:28;57.65;;;21.98;;
78368;SDS011;71113;43.092;-89.268;2023-12-22T00:24:55;60.20;;;23.02;;
78368;SDS011;71113;43.092;-89.268;2023-12-22T00:27:20;56.13;;;22.25;;
78368;SDS011;71113;43.092;-89.268;2023-12-22T00:29:46;52.80;;;20.13;;
78368;SDS011;71113;43.092;-89.268;2023-12-22T00:32:12;59.55;;;22.15;;
78368;SDS011;71113;43.092;-89.268;2023-12-22T00:34:38;52.90;;;20.48;;
78368;SDS011;71113;43.092;-89.268;2023-12-22T00:37:04;49.25;;;20.02;;
78368;SDS011;71113;43.092;-89.268;2023-12-22T00:39:30;51.65;;;19.35;;
78368;SDS011;71113;43.092;-89.268;2023-12-22T00:41:56;51.92;;;20.00;;
78368;SDS011;71113;43.092;-89.268;2023-12-22T00:44:22;51.53;;;19.38;;
78368;SDS011;71113;43.092;-89.268;2023-12-22T00:46:48;46.35;;;18.05;;
78368;SDS011;71113;43.092;-89.268;2023-12-22T00:49:14;47.55;;;18.85;;
78368;SDS011;71113;43.092;-89.268;2023-12-22T00:51:40;46.38;;;17.52;;
78368;SDS011;71113;43.092;-89.268;2023-12-22T00:54:06;46.00;;;17.27;;
78368;SDS011;71113;43.092;-89.268;2023-12-22T00:56:32;44.95;;;16.98;;
78368;SDS011;71113;43.092;-89.268;2023-12-22T00:58:58;37.78;;;15.40;;
78368;SDS011;71113;43.092;-89.268;2023-12-22T01:01:23;39.22;;;15.20;;
78368;SDS011;71113;43.092;-89.268;2023-12-22T01:03:49;34.65;;;13.05;;
78368;SDS011;71113;43.092;-89.268;2023-12-22T01:06:15;33.25;;;13.18;;
78368;SDS011;71113;43.092;-89.268;2023-12-22T01:08:41;34.28;;;13.40;;
78368;SDS011;71113;43.092;-89.268;2023-12-22T01:11:27;34.70;;;13.05;;
78368;SDS011;71113;43.092;-89.268;2023-12-22T01:13:53;31.83;;;12.40;;
78368;SDS011;71113;43.092;-89.268;2023-12-22T01:16:19;33.78;;;12.68;;
78368;SDS011;71113;43.092;-89.268;2023-12-22T01:18:47;31.67;;;12.45;;
78368;SDS011;71113;43.092;-89.268;2023-12-22T01:21:13;28.45;;;11.50;;
78368;SDS011;71113;43.092;-89.268;2023-12-22T01:23:39;26.30;;;10.25;;
78368;SDS011;71113;43.092;-89.268;2023-12-22T01:26:05;23.23;;;9.60;;
78368;SDS011;71113;43.092;-89.268;2023-12-22T01:28:31;23.90;;;9.95;;
78368;SDS011;71113;43.092;-89.268;2023-12-22T01:30:57;21.48;;;8.75;;
78368;SDS011;71113;43.092;-89.268;2023-12-22T01:33:23;20.65;;;8.48;;
78368;SDS011;71113;43.092;-89.268;2023-12-22T01:35:49;21.48;;;8.20;;
78368;SDS011;71113;43.092;-89.268;2023-12-22T01:38:15;19.08;;;7.40;;
78368;SDS011;71113;43.092;-89.268;2023-12-22T01:40:41;20.20;;;8.45;;
78368;SDS011;71113;43.092;-89.268;2023-12-22T01:43:07;20.15;;;8.10;;
78368;SDS011;71113;43.092;-89.268;2023-12-22T01:45:33;17.00;;;7.28;;
78368;SDS011;71113;43.092;-89.268;2023-12-22T01:47:59;17.95;;;6.72;;
78368;SDS011;71113;43.092;-89.268;2023-12-22T01:50:25;17.27;;;6.88;;
78368;SDS011;71113;43.092;-89.268;2023-12-22T01:52:51;14.30;;;6.53;;
78368;SDS011;71113;43.092;-89.268;2023-12-22T01:55:18;16.83;;;7.05;;
78368;SDS011;71113;43.092;-89.268;2023-12-22T01:57:45;16.40;;;6.88;;
78368;SDS011;71113;43.092;-89.268;2023-12-22T02:00:12;13.88;;;6.03;;
78368;SDS011;71113;43.092;-89.268;2023-12-22T02:02:39;14.98;;;6.18;;
78368;SDS011;71113;43.092;-89.268;2023-12-22T02:05:08;17.42;;;6.80;;
78368;SDS011;71113;43.092;-89.268;2023-12-22T02:07:40;17.30;;;6.13;;
78368;SDS011;71113;43.092;-89.268;2023-12-22T02:12:34;14.90;;;6.07;;
78368;SDS011;71113;43.092;-89.268;2023-12-22T02:15:03;15.45;;;6.40;;
78368;SDS011;71113;43.092;-89.268;2023-12-22T02:20:12;14.13;;;5.88;;
78368;SDS011;71113;43.092;-89.268;2023-12-22T02:22:38;13.98;;;5.68;;
78368;SDS011;71113;43.092;-89.268;2023-12-22T02:25:04;15.50;;;6.03;;
78368;SDS011;71113;43.092;-89.268;2023-12-22T02:27:35;13.52;;;5.72;;
78368;SDS011;71113;43.092;-89.268;2023-12-22T02:30:08;17.60;;;8.43;;
78368;SDS011;71113;43.092;-89.268;2023-12-22T02:32:42;279.83;;;116.80;;
78368;SDS011;71113;43.092;-89.268;2023-12-22T02:35:11;184.00;;;77.57;;
78368;SDS011;71113;43.092;-89.268;2023-12-22T02:37:42;174.07;;;66.40;;
78368;SDS011;71113;43.092;-89.268;2023-12-22T02:40:10;128.38;;;50.25;;
78368;SDS011;71113;43.092;-89.268;2023-12-22T02:42:37;189.88;;;62.70;;
78368;SDS011;71113;43.092;-89.268;2023-12-22T02:45:05;133.18;;;51.03;;
78368;SDS011;71113;43.092;-89.268;2023-12-22T02:47:31;132.93;;;49.72;;
78368;SDS011;71113;43.092;-89.268;2023-12-22T02:50:00;118.28;;;43.35;;
78368;SDS011;71113;43.092;-89.268;2023-12-22T02:52:26;120.63;;;47.65;;
78368;SDS011;71113;43.092;-89.268;2023-12-22T02:54:52;120.47;;;44.53;;
78368;SDS011;71113;43.092;-89.268;2023-12-22T02:57:24;114.88;;;40.55;;
78368;SDS011;71113;43.092;-89.268;2023-12-22T02:59:51;162.52;;;49.15;;
78368;SDS011;71113;43.092;-89.268;2023-12-22T03:02:17;121.57;;;39.95;;
78368;SDS011;71113;43.092;-89.268;2023-12-22T03:04:43;114.55;;;38.40;;
78368;SDS011;71113;43.092;-89.268;2023-12-22T03:07:11;102.05;;;37.40;;
78368;SDS011;71113;43.092;-89.268;2023-12-22T03:09:38;96.72;;;35.05;;
78368;SDS011;71113;43.092;-89.268;2023-12-22T03:12:08;115.25;;;41.53;;
78368;SDS011;71113;43.092;-89.268;2023-12-22T03:14:35;82.13;;;31.05;;
78368;SDS011;71113;43.092;-89.268;2023-12-22T03:17:02;75.65;;;27.85;;
78368;SDS011;71113;43.092;-89.268;2023-12-22T03:19:29;63.65;;;24.95;;
78368;SDS011;71113;43.092;-89.268;2023-12-22T03:21:55;56.17;;;22.98;;
78368;SDS011;71113;43.092;-89.268;2023-12-22T03:24:22;52.92;;;20.05;;
78368;SDS011;71113;43.092;-89.268;2023-12-22T03:26:49;53.42;;;21.60;;
78368;SDS011;71113;43.092;-89.268;2023-12-22T03:29:15;98.75;;;32.08;;
78368;SDS011;71113;43.092;-89.268;2023-12-22T03:31:42;77.50;;;28.67;;
78368;SDS011;71113;43.092;-89.268;2023-12-22T03:34:09;75.50;;;26.50;;
78368;SDS011;71113;43.092;-89.268;2023-12-22T03:36:35;77.68;;;28.15;;
78368;SDS011;71113;43.092;-89.268;2023-12-22T03:39:01;67.13;;;26.13;;
78368;SDS011;71113;43.092;-89.268;2023-12-22T03:41:28;62.38;;;23.50;;
78368;SDS011;71113;43.092;-89.268;2023-12-22T03:43:54;59.42;;;22.23;;
78368;SDS011;71113;43.092;-89.268;2023-12-22T03:46:21;66.20;;;22.40;;
78368;SDS011;71113;43.092;-89.268;2023-12-22T03:48:48;64.85;;;23.08;;
78368;SDS011;71113;43.092;-89.268;2023-12-22T03:51:15;55.70;;;21.13;;
78368;SDS011;71113;43.092;-89.268;2023-12-22T03:53:41;63.17;;;21.42;;
78368;SDS011;71113;43.092;-89.268;2023-12-22T03:56:08;58.08;;;20.63;;
78368;SDS011;71113;43.092;-89.268;2023-12-22T03:58:37;51.65;;;18.40;;
78368;SDS011;71113;43.092;-89.268;2023-12-22T04:01:03;45.97;;;17.25;;
78368;SDS011;71113;43.092;-89.268;2023-12-22T04:03:32;45.47;;;16.88;;
78368;SDS011;71113;43.092;-89.268;2023-12-22T04:06:02;46.17;;;16.75;;
78368;SDS011;71113;43.092;-89.268;2023-12-22T04:08:29;36.95;;;13.70;;
78368;SDS011;71113;43.092;-89.268;2023-12-22T04:10:55;36.88;;;14.20;;
78368;SDS011;71113;43.092;-89.268;2023-12-22T04:13:21;34.17;;;13.25;;
78368;SDS011;71113;43.092;-89.268;2023-12-22T04:15:47;29.00;;;11.13;;
78368;SDS011;71113;43.092;-89.268;2023-12-22T04:18:13;26.60;;;10.02;;
78368;SDS011;71113;43.092;-89.268;2023-12-22T04:20:39;22.52;;;9.68;;
78368;SDS011;71113;43.092;-89.268;2023-12-22T04:23:05;24.85;;;9.23;;
78368;SDS011;71113;43.092;-89.268;2023-12-22T04:25:31;19.13;;;8.25;;
78368;SDS011;71113;43.092;-89.268;2023-12-22T04:27:57;22.95;;;8.30;;
78368;SDS011;71113;43.092;-89.268;2023-12-22T04:30:23;22.60;;;7.68;;
78368;SDS011;71113;43.092;-89.268;2023-12-22T04:32:49;17.98;;;7.78;;
78368;SDS011;71113;43.092;-89.268;2023-12-22T04:35:15;17.02;;;6.88;;
78368;SDS011;71113;43.092;-89.268;2023-12-22T04:37:40;17.27;;;7.25;;
78368;SDS011;71113;43.092;-89.268;2023-12-22T04:40:07;15.35;;;6.35;;
78368;SDS011;71113;43.092;-89.268;2023-12-22T04:42:33;14.90;;;6.28;;
78368;SDS011;71113;43.092;-89.268;2023-12-22T04:44:59;13.85;;;5.38;;
78368;SDS011;71113;43.092;-89.268;2023-12-22T04:47:25;12.10;;;5.05;;
78368;SDS011;71113;43.092;-89.268;2023-12-22T04:49:51;12.57;;;5.05;;
78368;SDS011;71113;43.092;-89.268;2023-12-22T04:52:17;10.60;;;4.95;;
78368;SDS011;71113;43.092;-89.268;2023-12-22T04:54:43;11.60;;;4.60;;
78368;SDS011;71113;43.092;-89.268;2023-12-22T04:57:09;11.30;;;4.95;;
78368;SDS011;71113;43.092;-89.268;2023-12-22T04:59:35;11.40;;;4.65;;
78368;SDS011;71113;43.092;-89.268;2023-12-22T05:02:01;11.50;;;5.07;;
78368;SDS011;71113;43.092;-89.268;2023-12-22T05:04:27;8.73;;;4.18;;
78368;SDS011;71113;43.092;-89.268;2023-12-22T05:06:53;10.00;;;4.63;;
78368;SDS011;71113;43.092;-89.268;2023-12-22T05:09:19;8.23;;;4.28;;
78368;SDS011;71113;43.092;-89.268;2023-12-22T05:11:45;8.43;;;4.30;;
78368;SDS011;71113;43.092;-89.268;2023-12-22T05:14:11;11.68;;;4.22;;
78368;SDS011;71113;43.092;-89.268;2023-12-22T05:16:36;12.07;;;4.45;;
78368;SDS011;71113;43.092;-89.268;2023-12-22T05:19:02;11.10;;;4.10;;
78368;SDS011;71113;43.092;-89.268;2023-12-22T05:21:28;8.95;;;4.15;;
78368;SDS011;71113;43.092;-89.268;2023-12-22T05:23:55;11.45;;;4.00;;
78368;SDS011;71113;43.092;-89.268;2023-12-22T05:26:21;9.00;;;4.05;;
78368;SDS011;71113;43.092;-89.268;2023-12-22T05:28:47;7.85;;;3.88;;
78368;SDS011;71113;43.092;-89.268;2023-12-22T05:31:16;7.88;;;3.50;;
78368;SDS011;71113;43.092;-89.268;2023-12-22T05:33:43;8.85;;;3.80;;
78368;SDS011;71113;43.092;-89.268;2023-12-22T05:36:08;7.82;;;3.90;;
78368;SDS011;71113;43.092;-89.268;2023-12-22T05:38:38;9.85;;;3.90;;
78368;SDS011;71113;43.092;-89.268;2023-12-22T05:41:04;7.60;;;3.42;;
78368;SDS011;71113;43.092;-89.268;2023-12-22T05:43:32;7.72;;;4.13;;
78368;SDS011;71113;43.092;-89.268;2023-12-22T05:46:00;6.88;;;3.28;;
78368;SDS011;71113;43.092;-89.268;2023-12-22T05:48:26;7.15;;;3.50;;
78368;SDS011;71113;43.092;-89.268;2023-12-22T05:50:53;6.85;;;3.45;;
78368;SDS011;71113;43.092;-89.268;2023-12-22T05:53:21;6.72;;;3.38;;
78368;SDS011;71113;43.092;-89.268;2023-12-22T05:55:47;6.80;;;3.17;;
78368;SDS011;71113;43.092;-89.268;2023-12-22T05:58:13;6.72;;;3.10;;
78368;SDS011;71113;43.092;-89.268;2023-12-22T06:00:39;7.63;;;3.67;;
78368;SDS011;71113;43.092;-89.268;2023-12-22T06:03:05;7.43;;;3.40;;
78368;SDS011;71113;43.092;-89.268;2023-12-22T06:05:31;8.15;;;3.38;;
78368;SDS011;71113;43.092;-89.268;2023-12-22T06:07:57;7.07;;;3.25;;
78368;SDS011;71113;43.092;-89.268;2023-12-22T06:10:23;7.63;;;3.17;;
78368;SDS011;71113;43.092;-89.268;2023-12-22T06:12:49;6.75;;;3.50;;
78368;SDS011;71113;43.092;-89.268;2023-12-22T06:15:15;5.28;;;2.83;;
78368;SDS011;71113;43.092;-89.268;2023-12-22T06:17:40;7.38;;;3.30;;
78368;SDS011;71113;43.092;-89.268;2023-12-22T06:20:06;6.35;;;3.03;;
78368;SDS011;71113;43.092;-89.268;2023-12-22T06:22:33;6.38;;;3.55;;
78368;SDS011;71113;43.092;-89.268;2023-12-22T06:24:59;6.35;;;3.10;;
78368;SDS011;71113;43.092;-89.268;2023-12-22T06:27:25;5.93;;;3.03;;
78368;SDS011;71113;43.092;-89.268;2023-12-22T06:29:51;7.97;;;3.50;;
78368;SDS011;71113;43.092;-89.268;2023-12-22T06:32:16;5.53;;;3.10;;
78368;SDS011;71113;43.092;-89.268;2023-12-22T06:34:42;6.63;;;2.90;;
78368;SDS011;71113;43.092;-89.268;2023-12-22T06:37:08;5.30;;;2.72;;
78368;SDS011;71113;43.092;-89.268;2023-12-22T06:39:36;5.18;;;2.65;;
78368;SDS011;71113;43.092;-89.268;2023-12-22T06:42:02;5.25;;;2.50;;
78368;SDS011;71113;43.092;-89.268;2023-12-22T06:44:28;6.13;;;3.60;;
78368;SDS011;71113;43.092;-89.268;2023-12-22T06:46:56;7.38;;;3.10;;
78368;SDS011;71113;43.092;-89.268;2023-12-22T06:49:22;5.57;;;2.92;;
78368;SDS011;71113;43.092;-89.268;2023-12-22T06:51:48;5.68;;;2.90;;
78368;SDS011;71113;43.092;-89.268;2023-12-22T06:54:14;5.00;;;2.72;;
78368;SDS011;71113;43.092;-89.268;2023-12-22T06:56:40;4.82;;;2.55;;
78368;SDS011;71113;43.092;-89.268;2023-12-22T06:59:06;5.22;;;2.65;;
78368;SDS011;71113;43.092;-89.268;2023-12-22T07:01:32;5.03;;;2.70;;
78368;SDS011;71113;43.092;-89.268;2023-12-22T07:04:00;5.22;;;2.45;;
78368;SDS011;71113;43.092;-89.268;2023-12-22T07:06:28;4.57;;;2.47;;
78368;SDS011;71113;43.092;-89.268;2023-12-22T07:08:56;4.57;;;2.75;;
78368;SDS011;71113;43.092;-89.268;2023-12-22T07:11:49;5.32;;;2.50;;
78368;SDS011;71113;43.092;-89.268;2023-12-22T07:14:16;4.57;;;2.65;;
78368;SDS011;71113;43.092;-89.268;2023-12-22T07:16:42;5.13;;;2.70;;
78368;SDS011;71113;43.092;-89.268;2023-12-22T07:19:08;4.70;;;3.13;;
78368;SDS011;71113;43.092;-89.268;2023-12-22T07:21:36;4.18;;;2.53;;
78368;SDS011;71113;43.092;-89.268;2023-12-22T07:24:02;4.80;;;2.35;;
78368;SDS011;71113;43.092;-89.268;2023-12-22T07:26:28;4.55;;;2.38;;
78368;SDS011;71113;43.092;-89.268;2023-12-22T07:28:53;4.22;;;2.42;;
78368;SDS011;71113;43.092;-89.268;2023-12-22T07:31:19;3.60;;;2.28;;
78368;SDS011;71113;43.092;-89.268;2023-12-22T07:33:46;4.22;;;2.58;;
78368;SDS011;71113;43.092;-89.268;2023-12-22T07:36:11;5.80;;;2.95;;
78368;SDS011;71113;43.092;-89.268;2023-12-22T07:38:37;4.20;;;2.30;;
78368;SDS011;71113;43.092;-89.268;2023-12-22T07:41:06;6.05;;;2.80;;
78368;SDS011;71113;43.092;-89.268;2023-12-22T07:43:33;5.32;;;2.50;;
78368;SDS011;71113;43.092;-89.268;2023-12-22T07:45:58;6.10;;;2.47;;
78368;SDS011;71113;43.092;-89.268;2023-12-22T07:48:44;5.15;;;2.30;;
78368;SDS011;71113;43.092;-89.268;2023-12-22T07:51:11;4.88;;;2.20;;
78368;SDS011;71113;43.092;-89.268;2023-12-22T07:53:37;4.40;;;2.50;;
78368;SDS011;71113;43.092;-89.268;2023-12-22T07:56:04;3.90;;;2.70;;
78368;SDS011;71113;43.092;-89.268;2023-12-22T07:58:31;3.83;;;2.42;;
78368;SDS011;71113;43.092;-89.268;2023-12-22T08:00:59;4.93;;;2.50;;
78368;SDS011;71113;43.092;-89.268;2023-12-22T08:03:25;4.50;;;2.42;;
78368;SDS011;71113;43.092;-89.268;2023-12-22T08:05:51;5.20;;;2.42;;
78368;SDS011;71113;43.092;-89.268;2023-12-22T08:08:17;3.97;;;2.40;;
78368;SDS011;71113;43.092;-89.268;2023-12-22T08:10:43;3.90;;;2.53;;
78368;SDS011;71113;43.092;-89.268;2023-12-22T08:13:08;4.35;;;2.22;;
78368;SDS011;71113;43.092;-89.268;2023-12-22T08:15:34;4.25;;;2.30;;
78368;SDS011;71113;43.092;-89.268;2023-12-22T08:18:00;4.10;;;2.13;;
78368;SDS011;71113;43.092;-89.268;2023-12-22T08:20:26;5.75;;;2.67;;
78368;SDS011;71113;43.092;-89.268;2023-12-22T08:22:52;4.63;;;2.40;;
78368;SDS011;71113;43.092;-89.268;2023-12-22T08:25:21;4.38;;;2.50;;
78368;SDS011;71113;43.092;-89.268;2023-12-22T08:27:49;4.45;;;2.45;;
78368;SDS011;71113;43.092;-89.268;2023-12-22T08:30:15;3.30;;;2.10;;
78368;SDS011;71113;43.092;-89.268;2023-12-22T08:32:41;3.58;;;2.15;;
78368;SDS011;71113;43.092;-89.268;2023-12-22T08:35:07;3.63;;;2.38;;
78368;SDS011;71113;43.092;-89.268;2023-12-22T08:37:33;3.83;;;2.25;;
78368;SDS011;71113;43.092;-89.268;2023-12-22T08:39:59;4.40;;;2.60;;
78368;SDS011;71113;43.092;-89.268;2023-12-22T08:42:25;4.53;;;2.10;;
78368;SDS011;71113;43.092;-89.268;2023-12-22T08:44:55;3.80;;;2.42;;
78368;SDS011;71113;43.092;-89.268;2023-12-22T08:47:21;3.65;;;2.03;;
78368;SDS011;71113;43.092;-89.268;2023-12-22T08:49:47;4.68;;;2.50;;
78368;SDS011;71113;43.092;-89.268;2023-12-22T08:52:13;3.75;;;2.30;;
78368;SDS011;71113;43.092;-89.268;2023-12-22T08:54:39;4.15;;;2.13;;
78368;SDS011;71113;43.092;-89.268;2023-12-22T08:57:05;4.10;;;2.30;;
78368;SDS011;71113;43.092;-89.268;2023-12-22T08:59:30;4.28;;;2.30;;
78368;SDS011;71113;43.092;-89.268;2023-12-22T09:01:56;3.72;;;2.30;;
78368;SDS011;71113;43.092;-89.268;2023-12-22T09:04:22;4.00;;;2.30;;
78368;SDS011;71113;43.092;-89.268;2023-12-22T09:06:49;4.07;;;2.17;;
78368;SDS011;71113;43.092;-89.268;2023-12-22T09:09:15;3.45;;;2.15;;
78368;SDS011;71113;43.092;-89.268;2023-12-22T09:11:41;3.45;;;2.03;;
78368;SDS011;71113;43.092;-89.268;2023-12-22T09:14:07;4.00;;;2.42;;
78368;SDS011;71113;43.092;-89.268;2023-12-22T09:16:34;3.90;;;2.15;;
78368;SDS011;71113;43.092;-89.268;2023-12-22T09:19:01;4.05;;;2.30;;
78368;SDS011;71113;43.092;-89.268;2023-12-22T09:21:27;3.97;;;2.30;;
78368;SDS011;71113;43.092;-89.268;2023-12-22T09:23:53;3.53;;;2.03;;
78368;SDS011;71113;43.092;-89.268;2023-12-22T09:26:19;3.35;;;2.22;;
78368;SDS011;71113;43.092;-89.268;2023-12-22T09:28:46;4.03;;;2.10;;
78368;SDS011;71113;43.092;-89.268;2023-12-22T09:31:12;3.33;;;2.13;;
78368;SDS011;71113;43.092;-89.268;2023-12-22T09:33:38;4.25;;;2.40;;
78368;SDS011;71113;43.092;-89.268;2023-12-22T09:36:05;3.55;;;2.10;;
78368;SDS011;71113;43.092;-89.268;2023-12-22T09:38:31;3.78;;;2.30;;
78368;SDS011;71113;43.092;-89.268;2023-12-22T09:40:57;4.93;;;2.40;;
78368;SDS011;71113;43.092;-89.268;2023-12-22T09:43:24;4.57;;;2.42;;
78368;SDS011;71113;43.092;-89.268;2023-12-22T09:45:50;3.35;;;2.08;;
78368;SDS011;71113;43.092;-89.268;2023-12-22T09:48:22;3.25;;;2.08;;
78368;SDS011;71113;43.092;-89.268;2023-12-22T09:50:55;4.05;;;2.35;;
78368;SDS011;71113;43.092;-89.268;2023-12-22T09:53:21;3.30;;;2.05;;
78368;SDS011;71113;43.092;-89.268;2023-12-22T09:55:48;3.88;;;2.00;;
78368;SDS011;71113;43.092;-89.268;2023-12-22T09:58:15;3.40;;;2.20;;
78368;SDS011;71113;43.092;-89.268;2023-12-22T10:00:45;4.38;;;2.30;;
78368;SDS011;71113;43.092;-89.268;2023-12-22T10:03:12;3.72;;;2.13;;
78368;SDS011;71113;43.092;-89.268;2023-12-22T10:05:39;3.97;;;2.03;;
78368;SDS011;71113;43.092;-89.268;2023-12-22T10:08:06;3.63;;;2.10;;
78368;SDS011;71113;43.092;-89.268;2023-12-22T10:10:35;2.88;;;1.90;;
78368;SDS011;71113;43.092;-89.268;2023-12-22T10:13:05;3.50;;;2.13;;
78368;SDS011;71113;43.092;-89.268;2023-12-22T10:15:35;3.17;;;2.10;;
78368;SDS011;71113;43.092;-89.268;2023-12-22T10:18:05;3.28;;;1.98;;
78368;SDS011;71113;43.092;-89.268;2023-12-22T10:20:32;3.72;;;2.17;;
78368;SDS011;71113;43.092;-89.268;2023-12-22T10:22:58;2.75;;;2.15;;
78368;SDS011;71113;43.092;-89.268;2023-12-22T10:25:27;3.60;;;2.28;;
78368;SDS011;71113;43.092;-89.268;2023-12-22T10:27:57;4.10;;;2.30;;
78368;SDS011;71113;43.092;-89.268;2023-12-22T10:30:23;3.40;;;2.10;;
78368;SDS011;71113;43.092;-89.268;2023-12-22T10:32:50;4.10;;;2.55;;
78368;SDS011;71113;43.092;-89.268;2023-12-22T10:35:22;3.28;;;2.20;;
78368;SDS011;71113;43.092;-89.268;2023-12-22T10:37:48;2.95;;;1.88;;
78368;SDS011;71113;43.092;-89.268;2023-12-22T10:40:19;3.28;;;2.05;;
78368;SDS011;71113;43.092;-89.268;2023-12-22T10:42:45;3.78;;;2.38;;
78368;SDS011;71113;43.092;-89.268;2023-12-22T10:45:12;3.75;;;2.25;;
78368;SDS011;71113;43.092;-89.268;2023-12-22T10:47:38;3.70;;;2.00;;
78368;SDS011;71113;43.092;-89.268;2023-12-22T10:50:07;3.15;;;2.05;;
78368;SDS011;71113;43.092;-89.268;2023-12-22T10:52:33;3.33;;;2.00;;
78368;SDS011;71113;43.092;-89.268;2023-12-22T10:54:59;3.88;;;2.38;;
78368;SDS011;71113;43.092;-89.268;2023-12-22T10:57:26;3.05;;;1.90;;
78368;SDS011;71113;43.092;-89.268;2023-12-22T10:59:56;4.15;;;2.42;;
78368;SDS011;71113;43.092;-89.268;2023-12-22T11:02:23;4.22;;;2.17;;
78368;SDS011;71113;43.092;-89.268;2023-12-22T11:05:03;2.78;;;1.88;;
78368;SDS011;71113;43.092;-89.268;2023-12-22T11:07:32;2.88;;;2.00;;
78368;SDS011;71113;43.092;-89.268;2023-12-22T11:10:04;3.85;;;2.10;;
78368;SDS011;71113;43.092;-89.268;2023-12-22T11:12:40;3.33;;;1.73;;
78368;SDS011;71113;43.092;-89.268;2023-12-22T11:15:09;3.40;;;1.90;;
78368;SDS011;71113;43.092;-89.268;2023-12-22T11:17:36;2.58;;;1.65;;
78368;SDS011;71113;43.092;-89.268;2023-12-22T11:20:05;2.92;;;1.73;;
78368;SDS011;71113;43.092;-89.268;2023-12-22T11:22:34;2.58;;;1.67;;
78368;SDS011;71113;43.092;-89.268;2023-12-22T11:25:02;2.72;;;1.73;;
78368;SDS011;71113;43.092;-89.268;2023-12-22T11:27:28;2.70;;;1.63;;
78368;SDS011;71113;43.092;-89.268;2023-12-22T11:29:54;3.55;;;1.70;;
78368;SDS011;71113;43.092;-89.268;2023-12-22T11:32:20;2.03;;;1.40;;
78368;SDS011;71113;43.092;-89.268;2023-12-22T11:34:46;2.50;;;1.70;;
78368;SDS011;71113;43.092;-89.268;2023-12-22T11:37:13;2.20;;;1.58;;
78368;SDS011;71113;43.092;-89.268;2023-12-22T11:39:41;2.63;;;1.60;;
78368;SDS011;71113;43.092;-89.268;2023-12-22T11:42:34;2.50;;;1.60;;
78368;SDS011;71113;43.092;-89.268;2023-12-22T11:45:01;3.00;;;1.58;;
78368;SDS011;71113;43.092;-89.268;2023-12-22T11:47:28;2.10;;;1.50;;
78368;SDS011;71113;43.092;-89.268;2023-12-22T11:49:54;2.22;;;1.45;;
78368;SDS011;71113;43.092;-89.268;2023-12-22T11:52:27;1.90;;;1.23;;
78368;SDS011;71113;43.092;-89.268;2023-12-22T11:54:57;2.10;;;1.50;;
78368;SDS011;71113;43.092;-89.268;2023-12-22T12:00:03;2.35;;;1.40;;
78368;SDS011;71113;43.092;-89.268;2023-12-22T12:02:54;2.67;;;1.70;;
78368;SDS011;71113;43.092;-89.268;2023-12-22T12:05:20;2.10;;;1.30;;
78368;SDS011;71113;43.092;-89.268;2023-12-22T12:07:47;2.10;;;1.27;;
78368;SDS011;71113;43.092;-89.268;2023-12-22T12:13:04;2.20;;;1.30;;
78368;SDS011;71113;43.092;-89.268;2023-12-22T12:15:34;2.33;;;1.50;;
78368;SDS011;71113;43.092;-89.268;2023-12-22T12:18:00;2.75;;;1.50;;
78368;SDS011;71113;43.092;-89.268;2023-12-22T12:20:29;3.08;;;1.70;;
78368;SDS011;71113;43.092;-89.268;2023-12-22T12:22:55;3.20;;;1.70;;
78368;SDS011;71113;43.092;-89.268;2023-12-22T12:25:22;2.70;;;1.67;;
78368;SDS011;71113;43.092;-89.268;2023-12-22T12:28:05;2.25;;;1.40;;
78368;SDS011;71113;43.092;-89.268;2023-12-22T12:30:32;1.85;;;1.30;;
78368;SDS011;71113;43.092;-89.268;2023-12-22T12:33:06;1.83;;;1.20;;
78368;SDS011;71113;43.092;-89.268;2023-12-22T12:35:37;2.17;;;1.30;;
78368;SDS011;71113;43.092;-89.268;2023-12-22T12:38:04;2.97;;;1.70;;
78368;SDS011;71113;43.092;-89.268;2023-12-22T12:40:31;2.30;;;1.50;;
78368;SDS011;71113;43.092;-89.268;2023-12-22T12:42:59;2.47;;;1.60;;
78368;SDS011;71113;43.092;-89.268;2023-12-22T12:45:26;2.50;;;1.60;;
78368;SDS011;71113;43.092;-89.268;2023-12-22T12:47:55;2.22;;;1.50;;
78368;SDS011;71113;43.092;-89.268;2023-12-22T12:50:23;2.15;;;1.42;;
78368;SDS011;71113;43.092;-89.268;2023-12-22T12:52:51;2.80;;;1.70;;
78368;SDS011;71113;43.092;-89.268;2023-12-22T12:55:21;2.10;;;1.40;;
78368;SDS011;71113;43.092;-89.268;2023-12-22T12:57:51;2.85;;;1.90;;
78368;SDS011;71113;43.092;-89.268;2023-12-22T13:00:27;2.72;;;1.48;;
78368;SDS011;71113;43.092;-89.268;2023-12-22T13:03:04;2.30;;;1.50;;
78368;SDS011;71113;43.092;-89.268;2023-12-22T13:05:30;2.80;;;1.60;;
78368;SDS011;71113;43.092;-89.268;2023-12-22T13:10:59;2.50;;;1.63;;
78368;SDS011;71113;43.092;-89.268;2023-12-22T13:13:26;2.72;;;1.67;;
78368;SDS011;71113;43.092;-89.268;2023-12-22T13:15:52;2.50;;;1.48;;
78368;SDS011;71113;43.092;-89.268;2023-12-22T13:18:18;2.70;;;1.60;;
78368;SDS011;71113;43.092;-89.268;2023-12-22T13:20:44;2.65;;;1.65;;
78368;SDS011;71113;43.092;-89.268;2023-12-22T13:23:10;2.55;;;1.60;;
78368;SDS011;71113;43.092;-89.268;2023-12-22T13:25:39;2.22;;;1.50;;
78368;SDS011;71113;43.092;-89.268;2023-12-22T13:28:05;2.33;;;1.50;;
78368;SDS011;71113;43.092;-89.268;2023-12-22T13:33:06;2.72;;;1.65;;
78368;SDS011;71113;43.092;-89.268;2023-12-22T13:35:33;2.50;;;1.45;;
78368;SDS011;71113;43.092;-89.268;2023-12-22T13:38:02;2.70;;;1.70;;
78368;SDS011;71113;43.092;-89.268;2023-12-22T13:40:32;2.83;;;1.60;;
78368;SDS011;71113;43.092;-89.268;2023-12-22T13:42:58;2.63;;;1.73;;
78368;SDS011;71113;43.092;-89.268;2023-12-22T13:45:24;2.33;;;1.42;;
78368;SDS011;71113;43.092;-89.268;2023-12-22T13:47:51;2.50;;;1.50;;
78368;SDS011;71113;43.092;-89.268;2023-12-22T13:50:17;2.90;;;1.70;;
78368;SDS011;71113;43.092;-89.268;2023-12-22T13:52:43;2.15;;;1.50;;
78368;SDS011;71113;43.092;-89.268;2023-12-22T13:55:13;3.60;;;1.88;;
78368;SDS011;71113;43.092;-89.268;2023-12-22T13:57:41;2.97;;;1.63;;
78368;SDS011;71113;43.092;-89.268;2023-12-22T14:00:28;2.38;;;1.50;;
78368;SDS011;71113;43.092;-89.268;2023-12-22T14:02:54;2.42;;;1.42;;
78368;SDS011;71113;43.092;-89.268;2023-12-22T14:05:20;2.25;;;1.45;;
78368;SDS011;71113;43.092;-89.268;2023-12-22T14:07:47;2.33;;;1.30;;
78368;SDS011;71113;43.092;-89.268;2023-12-22T14:10:13;2.20;;;1.52;;
78368;SDS011;71113;43.092;-89.268;2023-12-22T14:12:39;2.50;;;1.60;;
78368;SDS011;71113;43.092;-89.268;2023-12-22T14:15:06;2.10;;;1.42;;
78368;SDS011;71113;43.092;-89.268;2023-12-22T14:17:33;2.72;;;1.63;;
78368;SDS011;71113;43.092;-89.268;2023-12-22T14:19:59;2.42;;;1.60;;
78368;SDS011;71113;43.092;-89.268;2023-12-22T14:22:25;2.20;;;1.40;;
78368;SDS011;71113;43.092;-89.268;2023-12-22T14:24:51;2.42;;;1.60;;
78368;SDS011;71113;43.092;-89.268;2023-12-22T14:27:17;2.55;;;1.60;;
78368;SDS011;71113;43.092;-89.268;2023-12-22T14:29:46;2.35;;;1.40;;